createdAt,value
2022-09-17T00:01:33.558Z,101075.00
2022-09-17T00:04:04.922Z,101075.09
2022-09-17T00:06:35.034Z,101087.22
2022-09-17T00:09:03.050Z,101079.28
2022-09-17T00:11:33.891Z,101078.34
2022-09-17T00:14:02.612Z,101078.38
2022-09-17T00:16:33.338Z,101068.78
2022-09-17T00:19:01.680Z,101075.09
2022-09-17T00:21:29.550Z,101068.78
2022-09-17T00:23:59.095Z,101075.16
2022-09-17T00:26:27.777Z,101081.53
2022-09-17T00:28:56.202Z,101076.09
2022-09-17T00:31:24.080Z,101068.25
2022-09-17T00:33:52.142Z,101063.78
2022-09-17T00:36:20.840Z,101067.41
2022-09-17T00:38:53.213Z,101051.63
2022-09-17T00:41:21.531Z,101054.22
2022-09-17T00:43:53.250Z,101052.59
2022-09-17T00:46:36.203Z,101048.16
2022-09-17T00:49:12.997Z,101044.97
2022-09-17T00:51:45.801Z,101041.56
2022-09-17T00:54:13.260Z,101037.16
2022-09-17T00:56:43.701Z,101030.38
2022-09-17T00:59:11.370Z,101031.34
2022-09-17T01:01:39.270Z,101036.09
2022-09-17T01:04:06.931Z,101023.78
2022-09-17T01:06:36.859Z,101024.41
2022-09-17T01:09:22.299Z,101031.00
2022-09-17T01:12:22.361Z,101026.50
2022-09-17T01:14:52.535Z,101023.88
2022-09-17T01:17:47.112Z,101019.69
2022-09-17T01:20:29.421Z,101020.38
2022-09-17T01:23:21.658Z,101026.84
2022-09-17T01:26:16.071Z,101027.56
2022-09-17T01:29:03.459Z,101024.88
2022-09-17T01:31:36.225Z,101025.69
2022-09-17T01:34:12.217Z,101022.91
2022-09-17T01:36:50.377Z,101032.13
2022-09-17T01:39:23.189Z,101030.78
2022-09-17T01:42:41.183Z,101032.75
2022-09-17T01:45:30.395Z,101042.50
2022-09-17T01:48:03.695Z,101031.25
2022-09-17T01:50:33.955Z,101031.78
2022-09-17T01:53:04.118Z,101025.72
2022-09-17T01:55:37.233Z,101029.13
2022-09-17T01:58:27.607Z,101027.25
2022-09-17T02:01:18.734Z,101030.09
2022-09-17T02:04:05.330Z,101028.19
2022-09-17T02:06:38.708Z,101031.56
2022-09-17T02:09:15.569Z,101023.66
2022-09-17T02:11:51.359Z,101027.03
2022-09-17T02:14:49.004Z,101023.56
2022-09-17T02:17:37.383Z,101024.22
2022-09-17T02:20:06.170Z,101023.38
2022-09-17T02:22:55.778Z,101026.94
2022-09-17T02:25:27.074Z,101032.03
2022-09-17T02:28:03.293Z,101025.91
2022-09-17T02:30:32.377Z,101023.22
2022-09-17T02:33:02.273Z,101017.19
2022-09-17T02:35:32.029Z,101025.00
2022-09-17T02:37:59.979Z,101029.25
2022-09-17T02:40:31.735Z,101025.97
2022-09-17T02:43:20.912Z,101030.59
2022-09-17T02:45:57.238Z,101031.53
2022-09-17T02:48:40.278Z,101031.09
2022-09-17T02:51:24.670Z,101028.53
2022-09-17T02:54:05.513Z,101030.38
2022-09-17T02:57:02.114Z,101031.03
2022-09-17T03:02:32.991Z,101025.13
2022-09-17T03:05:02.258Z,101016.88
2022-09-17T03:07:29.493Z,101019.03
2022-09-17T03:09:56.735Z,101014.63
2022-09-17T03:12:25.189Z,101019.13
2022-09-17T03:14:52.489Z,101019.41
2022-09-17T03:17:19.647Z,101026.75
2022-09-17T03:19:47.800Z,101022.81
2022-09-17T03:22:14.896Z,101023.09
2022-09-17T03:24:42.317Z,101027.28
2022-09-17T03:27:09.360Z,101028.44
2022-09-17T03:29:37.117Z,101030.34
2022-09-17T03:32:04.627Z,101031.97
2022-09-17T03:34:31.943Z,101036.88
2022-09-17T03:36:59.377Z,101035.78
2022-09-17T03:39:26.436Z,101034.06
2022-09-17T03:41:53.894Z,101046.56
2022-09-17T03:44:23.300Z,101037.69
2022-09-17T03:46:51.327Z,101039.44
2022-09-17T03:49:18.871Z,101041.41
2022-09-17T03:51:46.388Z,101038.28
2022-09-17T03:54:15.332Z,101049.66
2022-09-17T03:56:42.502Z,101035.63
2022-09-17T03:59:17.817Z,101043.03
2022-09-17T04:01:45.402Z,101042.28
2022-09-17T04:04:13.618Z,101042.50
2022-09-17T04:06:41.605Z,101044.13
2022-09-17T04:09:09.145Z,101035.91
2022-09-17T04:11:37.247Z,101041.25
2022-09-17T04:14:04.471Z,101048.56
2022-09-17T04:16:31.778Z,101046.91
2022-09-17T04:18:59.147Z,101053.84
2022-09-17T04:21:26.972Z,101052.44
2022-09-17T04:23:54.909Z,101053.66
2022-09-17T04:26:24.088Z,101045.69
2022-09-17T04:28:53.898Z,101047.31
2022-09-17T04:31:27.332Z,101048.34
2022-09-17T04:33:54.559Z,101049.31
2022-09-17T04:36:22.960Z,101056.44
2022-09-17T04:38:51.738Z,101050.41
2022-09-17T04:41:19.325Z,101055.53
2022-09-17T04:43:48.124Z,101061.09
2022-09-17T04:46:17.037Z,101071.63
2022-09-17T04:48:44.919Z,101075.13
2022-09-17T04:51:12.463Z,101076.94
2022-09-17T04:53:39.993Z,101077.78
2022-09-17T04:56:07.884Z,101078.50
2022-09-17T04:58:35.529Z,101087.50
2022-09-17T05:01:02.755Z,101083.09
2022-09-17T05:03:33.336Z,101087.56
2022-09-17T05:06:01.141Z,101094.78
2022-09-17T05:08:28.392Z,101095.75
2022-09-17T05:10:55.463Z,101089.47
2022-09-17T05:13:23.170Z,101093.81
2022-09-17T05:15:50.416Z,101084.84
2022-09-17T05:18:17.497Z,101088.47
2022-09-17T05:20:45.223Z,101097.31
2022-09-17T05:23:12.482Z,101099.94
2022-09-17T05:25:39.674Z,101106.09
2022-09-17T05:28:07.019Z,101113.78
2022-09-17T05:30:34.151Z,101114.66
2022-09-17T05:33:03.363Z,101116.41
2022-09-17T05:35:31.572Z,101119.75
2022-09-17T05:38:00.129Z,101118.88
2022-09-17T05:40:28.233Z,101127.75
2022-09-17T05:43:07.196Z,101127.81
2022-09-17T05:45:35.891Z,101125.81
2022-09-17T05:48:04.672Z,101140.03
2022-09-17T05:50:32.659Z,101133.19
2022-09-17T05:53:17.851Z,101143.94
2022-09-17T05:55:44.947Z,101142.88
2022-09-17T05:58:14.152Z,101149.97
2022-09-17T06:00:43.208Z,101145.75
2022-09-17T06:03:15.254Z,101151.66
2022-09-17T06:05:43.600Z,101154.59
2022-09-17T06:08:11.471Z,101150.88
2022-09-17T06:10:40.088Z,101156.22
2022-09-17T06:13:07.231Z,101150.91
2022-09-17T06:15:34.893Z,101151.75
2022-09-17T06:18:02.198Z,101154.31
2022-09-17T06:20:29.576Z,101153.41
2022-09-17T06:23:00.016Z,101157.97
2022-09-17T06:25:27.151Z,101155.97
2022-09-17T06:27:54.869Z,101156.94
2022-09-17T06:30:22.067Z,101163.13
2022-09-17T06:32:49.175Z,101164.94
2022-09-17T06:35:16.562Z,101170.53
2022-09-17T06:37:43.618Z,101178.34
2022-09-17T06:40:11.186Z,101178.66
2022-09-17T06:42:38.367Z,101178.47
2022-09-17T06:45:10.128Z,101177.66
2022-09-17T06:47:39.509Z,101183.13
2022-09-17T06:50:06.929Z,101183.31
2022-09-17T06:52:34.498Z,101174.31
2022-09-17T06:55:01.685Z,101184.88
2022-09-17T06:57:28.871Z,101186.50
2022-09-17T06:59:55.952Z,101196.16
2022-09-17T07:02:23.083Z,101191.78
2022-09-17T07:04:50.609Z,101205.97
2022-09-17T07:07:17.841Z,101200.59
2022-09-17T07:09:44.906Z,101215.69
2022-09-17T07:12:13.059Z,101216.63
2022-09-17T07:14:40.128Z,101224.31
2022-09-17T07:17:07.709Z,101223.31
2022-09-17T07:19:35.249Z,101226.50
2022-09-17T07:22:02.434Z,101241.53
2022-09-17T07:24:33.028Z,101237.72
2022-09-17T07:27:01.117Z,101236.91
2022-09-17T07:29:28.382Z,101239.09
2022-09-17T07:31:55.446Z,101247.75
2022-09-17T07:34:24.179Z,101244.06
2022-09-17T07:36:52.574Z,101246.47
2022-09-17T07:39:19.708Z,101253.38
2022-09-17T07:41:46.699Z,101248.06
2022-09-17T07:44:13.721Z,101257.16
2022-09-17T07:46:40.832Z,101255.16
2022-09-17T07:49:08.131Z,101253.59
2022-09-17T07:51:35.337Z,101248.50
2022-09-17T07:54:02.711Z,101247.59
2022-09-17T07:56:31.093Z,101254.59
2022-09-17T07:58:58.661Z,101270.41
2022-09-17T08:01:27.514Z,101263.53
2022-09-17T08:03:55.756Z,101264.28
2022-09-17T08:06:31.323Z,101272.72
2022-09-17T08:09:00.819Z,101276.84
2022-09-17T08:11:54.595Z,101279.00
2022-09-17T08:14:17.039Z,101274.97
2022-09-17T08:16:46.613Z,101283.34
2022-09-17T08:19:13.917Z,101276.22
2022-09-17T08:21:41.688Z,101284.88
2022-09-17T08:24:09.087Z,101279.78
2022-09-17T08:26:36.338Z,101278.09
2022-09-17T08:29:03.551Z,101285.47
2022-09-17T08:31:30.888Z,101281.94
2022-09-17T08:33:58.190Z,101286.38
2022-09-17T08:36:26.614Z,101289.50
2022-09-17T08:38:55.108Z,101296.44
2022-09-17T08:41:42.392Z,101298.81
2022-09-17T08:44:26.585Z,101301.06
2022-09-17T08:47:13.419Z,101299.25
2022-09-17T08:50:00.264Z,101298.41
2022-09-17T08:53:07.480Z,101297.78
2022-09-17T08:55:44.403Z,101304.69
2022-09-17T08:58:17.493Z,101304.75
2022-09-17T09:01:05.396Z,101310.06
2022-09-17T09:03:50.788Z,101306.72
2022-09-17T09:06:23.401Z,101308.25
2022-09-17T09:09:15.857Z,101307.81
2022-09-17T09:11:44.672Z,101300.59
2022-09-17T09:14:23.396Z,101303.09
2022-09-17T09:16:52.932Z,101308.81
2022-09-17T09:19:35.264Z,101302.50
2022-09-17T09:22:29.703Z,101298.56
2022-09-17T09:25:18.318Z,101299.13
2022-09-17T09:28:15.559Z,101300.19
2022-09-17T09:31:00.901Z,101301.94
2022-09-17T09:33:32.576Z,101306.88
2022-09-17T09:35:59.997Z,101303.34
2022-09-17T09:38:35.940Z,101308.31
2022-09-17T09:41:12.196Z,101301.84
2022-09-17T09:44:05.342Z,101300.47
2022-09-17T09:46:51.834Z,101306.00
2022-09-17T09:50:11.924Z,101306.53
2022-09-17T09:53:02.224Z,101299.44
2022-09-17T09:56:14.000Z,101302.19
2022-09-17T09:58:46.075Z,101301.75
2022-09-17T10:01:20.778Z,101299.59
2022-09-17T10:03:49.893Z,101298.16
2022-09-17T10:06:17.931Z,101294.47
2022-09-17T10:08:54.046Z,101301.41
2022-09-17T10:11:28.067Z,101300.91
2022-09-17T10:14:16.548Z,101296.78
2022-09-17T10:16:43.705Z,101294.09
2022-09-17T10:19:20.432Z,101293.53
2022-09-17T10:21:48.340Z,101301.34
2022-09-17T10:24:32.216Z,101302.19
2022-09-17T10:27:14.012Z,101300.97
2022-09-17T10:29:47.745Z,101298.47
2022-09-17T10:32:20.807Z,101303.00
2022-09-17T10:35:05.996Z,101302.81
2022-09-17T10:37:44.017Z,101294.78
2022-09-17T10:40:29.240Z,101292.41
2022-09-17T10:43:29.487Z,101292.25
2022-09-17T10:46:02.949Z,101293.69
2022-09-17T10:48:37.081Z,101292.72
2022-09-17T10:51:06.965Z,101290.53
2022-09-17T10:53:56.403Z,101288.88
2022-09-17T10:56:35.497Z,101280.13
2022-09-17T10:59:25.239Z,101278.50
2022-09-17T11:02:43.549Z,101280.31
2022-09-17T11:05:26.857Z,101268.72
2022-09-17T11:08:05.900Z,101281.56
2022-09-17T11:10:57.625Z,101275.34
2022-09-17T11:13:54.082Z,101266.44
2022-09-17T11:16:52.130Z,101277.31
2022-09-17T11:19:37.116Z,101272.53
2022-09-17T11:22:31.629Z,101285.09
2022-09-17T11:24:58.757Z,101273.72
2022-09-17T11:27:35.622Z,101279.72
2022-09-17T11:30:24.386Z,101286.06
2022-09-17T11:32:54.434Z,101284.84
2022-09-17T11:35:27.693Z,101273.78
2022-09-17T11:38:24.052Z,101285.13
2022-09-17T11:41:09.627Z,101280.94
2022-09-17T11:43:45.266Z,101275.38
2022-09-17T11:46:15.619Z,101285.50
2022-09-17T11:48:48.983Z,101281.91
2022-09-17T11:51:28.338Z,101293.38
2022-09-17T11:54:30.539Z,101279.97
2022-09-17T11:57:16.745Z,101278.06
2022-09-17T12:00:12.681Z,101276.06
2022-09-17T12:02:55.242Z,101269.69
2022-09-17T12:05:42.974Z,101266.81
2022-09-17T12:08:34.580Z,101264.19
2022-09-17T12:11:13.167Z,101256.44
2022-09-17T12:14:03.212Z,101253.66
2022-09-17T12:16:43.870Z,101253.97
2022-09-17T12:19:31.683Z,101250.34
2022-09-17T12:22:12.058Z,101250.78
2022-09-17T12:24:40.622Z,101239.94
2022-09-17T12:27:39.660Z,101264.41
2022-09-17T12:30:13.637Z,101248.44
2022-09-17T12:33:31.716Z,101258.25
2022-09-17T12:36:24.147Z,101245.94
2022-09-17T12:39:21.640Z,101241.47
2022-09-17T12:41:59.033Z,101238.06
2022-09-17T12:45:00.068Z,101239.63
2022-09-17T12:48:03.070Z,101244.88
2022-09-17T12:51:02.692Z,101253.97
2022-09-17T12:53:36.331Z,101246.28
2022-09-17T12:56:45.331Z,101246.69
2022-09-17T12:59:20.325Z,101243.69
2022-09-17T13:02:01.390Z,101236.28
2022-09-17T13:05:01.460Z,101241.00
2022-09-17T13:07:48.955Z,101245.41
2022-09-17T13:10:47.674Z,101246.19
2022-09-17T13:13:41.865Z,101239.78
2022-09-17T13:16:42.948Z,101254.75
2022-09-17T13:19:22.383Z,101243.19
2022-09-17T13:22:04.273Z,101258.56
2022-09-17T13:24:34.746Z,101263.94
2022-09-17T13:27:05.228Z,101256.44
2022-09-17T13:29:54.822Z,101257.59
2022-09-17T13:32:37.535Z,101274.13
2022-09-17T13:35:10.568Z,101275.31
2022-09-17T13:37:40.946Z,101274.41
2022-09-17T13:40:26.361Z,101270.28
2022-09-17T13:43:08.995Z,101285.81
2022-09-17T13:46:01.093Z,101280.81
2022-09-17T13:48:31.981Z,101282.00
2022-09-17T13:51:30.681Z,101280.19
2022-09-17T13:54:08.977Z,101280.88
2022-09-17T13:56:46.215Z,101289.91
2022-09-17T13:59:28.089Z,101275.88
2022-09-17T14:02:03.170Z,101282.88
2022-09-17T14:04:42.571Z,101285.22
2022-09-17T14:07:21.824Z,101284.56
2022-09-17T14:09:59.482Z,101286.63
2022-09-17T14:12:43.204Z,101296.25
2022-09-17T14:15:32.210Z,101294.66
2022-09-17T14:17:59.999Z,101292.94
2022-09-17T14:20:28.041Z,101284.16
2022-09-17T14:23:03.991Z,101289.75
2022-09-17T14:25:58.106Z,101289.94
2022-09-17T14:28:44.277Z,101281.28
2022-09-17T14:31:21.908Z,101294.25
2022-09-17T14:33:49.626Z,101294.16
2022-09-17T14:36:20.650Z,101291.25
2022-09-17T14:38:56.328Z,101289.66
2022-09-17T14:41:33.245Z,101295.84
2022-09-17T14:44:05.275Z,101289.75
2022-09-17T14:46:47.519Z,101287.69
2022-09-17T14:49:19.899Z,101278.94
2022-09-17T14:51:50.774Z,101284.56
2022-09-17T14:54:21.029Z,101280.81
2022-09-17T14:56:54.073Z,101281.22
2022-09-17T14:59:44.811Z,101281.06
2022-09-17T15:02:29.171Z,101291.00
2022-09-17T15:04:57.776Z,101284.44
2022-09-17T15:07:27.725Z,101285.69
2022-09-17T15:10:08.127Z,101286.91
2022-09-17T15:12:35.782Z,101279.03
2022-09-17T15:15:03.274Z,101283.09
2022-09-17T15:17:33.935Z,101286.50
2022-09-17T15:20:06.087Z,101287.91
2022-09-17T15:22:39.632Z,101280.53
2022-09-17T15:25:09.770Z,101280.03
2022-09-17T15:27:46.127Z,101288.22
2022-09-17T15:30:22.464Z,101284.31
2022-09-17T15:32:58.564Z,101270.88
2022-09-17T15:35:30.564Z,101284.41
2022-09-17T15:38:22.218Z,101297.31
2022-09-17T15:40:50.869Z,101284.13
2022-09-17T15:43:26.492Z,101280.41
2022-09-17T15:45:54.555Z,101288.38
2022-09-17T15:48:21.627Z,101287.97
2022-09-17T15:50:54.599Z,101296.31
2022-09-17T15:53:27.844Z,101293.94
2022-09-17T15:56:20.989Z,101298.97
2022-09-17T15:58:59.994Z,101298.59
2022-09-17T16:01:30.504Z,101292.38
2022-09-17T16:04:07.993Z,101300.69
2022-09-17T16:06:36.886Z,101289.72
2022-09-17T16:09:04.576Z,101301.22
2022-09-17T16:11:33.257Z,101287.97
2022-09-17T16:14:03.215Z,101289.38
2022-09-17T16:16:37.487Z,101278.31
2022-09-17T16:19:06.891Z,101287.19
2022-09-17T16:21:34.305Z,101289.28
2022-09-17T16:24:02.396Z,101280.31
2022-09-17T16:26:32.646Z,101278.03
2022-09-17T16:29:05.058Z,101283.03
2022-09-17T16:31:33.595Z,101283.84
2022-09-17T16:34:01.229Z,101286.69
2022-09-17T16:36:32.396Z,101282.53
2022-09-17T16:39:00.679Z,101284.81
2022-09-17T16:41:28.040Z,101283.19
2022-09-17T16:43:56.605Z,101282.06
2022-09-17T16:46:24.174Z,101289.94
2022-09-17T16:48:51.615Z,101298.97
2022-09-17T16:51:19.142Z,101293.56
2022-09-17T16:53:47.700Z,101288.19
2022-09-17T16:56:16.573Z,101293.00
2022-09-17T16:58:45.498Z,101287.16
2022-09-17T17:01:15.024Z,101297.38
2022-09-17T17:03:42.938Z,101295.22
2022-09-17T17:06:17.660Z,101284.41
2022-09-17T17:08:45.088Z,101292.22
2022-09-17T17:11:12.788Z,101277.47
2022-09-17T17:13:44.249Z,101291.59
2022-09-17T17:16:14.909Z,101290.63
2022-09-17T17:18:44.351Z,101285.84
2022-09-17T17:21:13.501Z,101297.16
2022-09-17T17:23:43.731Z,101289.81
2022-09-17T17:26:11.538Z,101293.50
2022-09-17T17:28:38.981Z,101295.59
2022-09-17T17:31:06.838Z,101297.09
2022-09-17T17:33:37.548Z,101289.72
2022-09-17T17:36:08.296Z,101291.84
2022-09-17T17:38:37.945Z,101284.56
2022-09-17T17:41:11.099Z,101291.84
2022-09-17T17:43:39.933Z,101293.81
2022-09-17T17:46:10.851Z,101295.06
2022-09-17T17:48:38.638Z,101295.72
2022-09-17T17:51:09.584Z,101298.78
2022-09-17T17:53:37.546Z,101294.75
2022-09-17T17:56:08.834Z,101294.72
2022-09-17T17:58:37.911Z,101297.59
2022-09-17T18:01:20.906Z,101302.66
2022-09-17T18:03:50.360Z,101304.69
2022-09-17T18:06:18.517Z,101294.84
2022-09-17T18:08:46.255Z,101293.88
2022-09-17T18:11:13.640Z,101301.16
2022-09-17T18:13:43.785Z,101309.47
2022-09-17T18:16:15.057Z,101312.09
2022-09-17T18:18:45.243Z,101307.78
2022-09-17T18:21:17.888Z,101309.63
2022-09-17T18:23:46.787Z,101315.59
2022-09-17T18:26:26.587Z,101317.44
2022-09-17T18:28:55.367Z,101320.81
2022-09-17T18:31:27.041Z,101324.72
2022-09-17T18:34:03.109Z,101317.97
2022-09-17T18:36:32.757Z,101321.91
2022-09-17T18:39:32.876Z,101321.81
2022-09-17T18:41:52.626Z,101330.75
2022-09-17T18:44:22.097Z,101330.13
2022-09-17T18:46:51.703Z,101331.44
2022-09-17T18:49:19.122Z,101341.50
2022-09-17T18:51:46.502Z,101342.06
2022-09-17T18:54:14.851Z,101340.00
2022-09-17T18:56:42.526Z,101341.84
2022-09-17T18:59:11.359Z,101348.78
2022-09-17T19:01:38.842Z,101347.75
2022-09-17T19:04:08.013Z,101354.97
2022-09-17T19:06:38.107Z,101359.84
2022-09-17T19:09:06.881Z,101361.06
2022-09-17T19:11:38.374Z,101364.63
2022-09-17T19:14:05.943Z,101362.25
2022-09-17T19:16:35.682Z,101363.16
2022-09-17T19:19:03.291Z,101373.09
2022-09-17T19:21:30.606Z,101372.44
2022-09-17T19:23:58.360Z,101380.56
2022-09-17T19:26:27.930Z,101376.97
2022-09-17T19:29:00.755Z,101380.19
2022-09-17T19:31:31.402Z,101389.06
2022-09-17T19:34:00.195Z,101392.72
2022-09-17T19:36:27.564Z,101395.47
2022-09-17T19:38:56.001Z,101396.97
2022-09-17T19:41:23.911Z,101390.03
2022-09-17T19:43:55.437Z,101403.16
2022-09-17T19:46:25.486Z,101407.16
2022-09-17T19:48:56.260Z,101408.25
2022-09-17T19:51:26.030Z,101411.25
2022-09-17T19:53:54.004Z,101406.00
2022-09-17T19:56:23.674Z,101410.03
2022-09-17T19:58:51.687Z,101409.69
2022-09-17T20:01:20.190Z,101412.44
2022-09-17T20:03:49.388Z,101416.16
2022-09-17T20:06:21.171Z,101417.88
2022-09-17T20:08:50.819Z,101420.53
2022-09-17T20:11:19.995Z,101418.97
2022-09-17T20:13:47.497Z,101418.94
2022-09-17T20:16:20.607Z,101424.13
2022-09-17T20:18:50.594Z,101431.47
2022-09-17T20:21:28.016Z,101430.50
2022-09-17T20:23:56.156Z,101435.91
2022-09-17T20:26:23.653Z,101436.47
2022-09-17T20:28:53.189Z,101440.97
2022-09-17T20:31:27.230Z,101441.72
2022-09-17T20:33:57.063Z,101435.53
2022-09-17T20:36:27.382Z,101436.13
2022-09-17T20:39:22.533Z,101443.06
2022-09-17T20:41:50.991Z,101441.25
2022-09-17T20:44:18.525Z,101451.09
2022-09-17T20:46:50.911Z,101448.75
2022-09-17T20:49:18.204Z,101451.13
2022-09-17T20:51:45.713Z,101455.41
2022-09-17T20:54:13.170Z,101458.47
2022-09-17T20:56:44.196Z,101457.47
2022-09-17T20:59:16.546Z,101464.00
2022-09-17T21:01:50.076Z,101470.66
2022-09-17T21:04:21.995Z,101467.03
2022-09-17T21:06:53.011Z,101470.53
2022-09-17T21:09:23.905Z,101472.31
2022-09-17T21:11:51.186Z,101464.72
2022-09-17T21:14:19.743Z,101467.56
2022-09-17T21:16:46.893Z,101468.25
2022-09-17T21:19:16.395Z,101472.59
2022-09-17T21:21:44.057Z,101467.25
2022-09-17T21:24:12.570Z,101467.56
2022-09-17T21:26:39.786Z,101463.13
2022-09-17T21:29:07.029Z,101470.13
2022-09-17T21:31:39.729Z,101464.84
2022-09-17T21:34:10.310Z,101465.06
2022-09-17T21:36:40.324Z,101466.84
2022-09-17T21:39:12.208Z,101472.88
2022-09-17T21:41:45.138Z,101476.31
2022-09-17T21:44:12.904Z,101467.34
2022-09-17T21:46:42.994Z,101476.28
2022-09-17T21:49:17.550Z,101468.59
2022-09-17T21:51:50.559Z,101470.25
2022-09-17T21:54:19.422Z,101473.63
2022-09-17T21:56:47.112Z,101470.47
2022-09-17T21:59:15.767Z,101471.22
2022-09-17T22:01:47.285Z,101477.72
2022-09-17T22:04:18.340Z,101474.69
2022-09-17T22:06:49.726Z,101478.34
2022-09-17T22:09:24.331Z,101473.75
2022-09-17T22:11:52.725Z,101478.16
2022-09-17T22:14:22.749Z,101473.59
2022-09-17T22:16:55.470Z,101476.63
2022-09-17T22:19:23.892Z,101466.88
2022-09-17T22:21:53.773Z,101470.34
2022-09-17T22:24:23.896Z,101468.63
2022-09-17T22:26:57.462Z,101459.59
2022-09-17T22:29:28.714Z,101457.97
2022-09-17T22:31:58.407Z,101471.06
2022-09-17T22:34:26.586Z,101469.38
2022-09-17T22:36:53.824Z,101466.84
2022-09-17T22:39:22.551Z,101469.47
2022-09-17T22:41:50.453Z,101469.47
2022-09-17T22:44:19.900Z,101475.63
2022-09-17T22:46:50.051Z,101467.72
2022-09-17T22:49:19.403Z,101469.94
2022-09-17T22:51:47.423Z,101467.34
2022-09-17T22:54:17.266Z,101469.09
2022-09-17T22:56:44.526Z,101472.63
2022-09-17T22:59:12.042Z,101474.38
2022-09-17T23:01:40.145Z,101474.59
2022-09-17T23:04:07.982Z,101478.97
2022-09-17T23:06:38.248Z,101481.47
2022-09-17T23:09:06.012Z,101475.25
2022-09-17T23:11:37.186Z,101484.19
2022-09-17T23:14:07.535Z,101477.94
2022-09-17T23:16:47.048Z,101485.09
2022-09-17T23:19:16.444Z,101482.81
2022-09-17T23:21:44.488Z,101491.06
2022-09-17T23:24:18.885Z,101488.19
2022-09-17T23:26:46.756Z,101492.53
2022-09-17T23:29:14.345Z,101490.81
2022-09-17T23:31:42.168Z,101488.88
2022-09-17T23:34:10.652Z,101490.13
2022-09-17T23:36:40.139Z,101489.78
2022-09-17T23:39:09.458Z,101489.75
2022-09-17T23:41:40.206Z,101494.16
2022-09-17T23:44:14.552Z,101491.41
2022-09-17T23:46:45.950Z,101494.03
2022-09-17T23:49:13.832Z,101486.97
2022-09-17T23:51:42.720Z,101486.22
2022-09-17T23:54:10.357Z,101482.09
2022-09-17T23:56:38.001Z,101482.81
2022-09-17T23:59:05.844Z,101489.16
